sensor_id;sensor_type;location;lat;lon;timestamp;P1;durP1;ratioP1;P2;durP2;ratioP2
64252;SDS011;50592;52.958;-7.470;2024-02-26T00:00:00;3.60;;;1.27;;
64252;SDS011;50592;52.958;-7.470;2024-02-26T00:02:32;1.88;;;1.00;;
64252;SDS011;50592;52.958;-7.470;2024-02-26T00:05:06;2.55;;;1.17;;
64252;SDS011;50592;52.958;-7.470;2024-02-26T00:07:35;1.98;;;1.10;;
64252;SDS011;50592;52.958;-7.470;2024-02-26T00:10:24;2.10;;;1.20;;
64252;SDS011;50592;52.958;-7.470;2024-02-26T00:13:00;3.42;;;1.48;;
64252;SDS011;50592;52.958;-7.470;2024-02-26T00:15:26;1.55;;;0.88;;
64252;SDS011;50592;52.958;-7.470;2024-02-26T00:17:53;1.77;;;1.25;;
64252;SDS011;50592;52.958;-7.470;2024-02-26T00:20:19;5.70;;;1.58;;
64252;SDS011;50592;52.958;-7.470;2024-02-26T00:22:45;2.03;;;1.35;;
64252;SDS011;50592;52.958;-7.470;2024-02-26T00:25:20;2.75;;;1.02;;
64252;SDS011;50592;52.958;-7.470;2024-02-26T00:27:57;1.75;;;1.02;;
64252;SDS011;50592;52.958;-7.470;2024-02-26T00:30:43;3.25;;;1.50;;
64252;SDS011;50592;52.958;-7.470;2024-02-26T00:33:14;2.88;;;1.23;;
64252;SDS011;50592;52.958;-7.470;2024-02-26T00:35:49;2.85;;;1.30;;
64252;SDS011;50592;52.958;-7.470;2024-02-26T00:38:29;3.53;;;1.40;;
64252;SDS011;50592;52.958;-7.470;2024-02-26T00:40:57;5.07;;;1.20;;
64252;SDS011;50592;52.958;-7.470;2024-02-26T00:43:23;2.58;;;1.15;;
64252;SDS011;50592;52.958;-7.470;2024-02-26T00:45:49;3.22;;;1.20;;
64252;SDS011;50592;52.958;-7.470;2024-02-26T00:48:14;6.55;;;1.30;;
64252;SDS011;50592;52.958;-7.470;2024-02-26T00:50:40;6.53;;;1.33;;
64252;SDS011;50592;52.958;-7.470;2024-02-26T00:53:14;7.18;;;1.83;;
64252;SDS011;50592;52.958;-7.470;2024-02-26T00:55:43;4.20;;;1.52;;
64252;SDS011;50592;52.958;-7.470;2024-02-26T00:58:23;1.20;;;1.10;;
64252;SDS011;50592;52.958;-7.470;2024-02-26T01:01:17;2.33;;;1.30;;
64252;SDS011;50592;52.958;-7.470;2024-02-26T01:06:40;2.80;;;1.60;;
64252;SDS011;50592;52.958;-7.470;2024-02-26T01:09:25;2.65;;;1.17;;
64252;SDS011;50592;52.958;-7.470;2024-02-26T01:14:47;1.73;;;1.23;;
64252;SDS011;50592;52.958;-7.470;2024-02-26T01:17:20;4.93;;;1.67;;
64252;SDS011;50592;52.958;-7.470;2024-02-26T01:20:02;4.10;;;1.80;;
64252;SDS011;50592;52.958;-7.470;2024-02-26T01:22:34;3.33;;;1.77;;
64252;SDS011;50592;52.958;-7.470;2024-02-26T01:25:16;4.43;;;1.48;;
64252;SDS011;50592;52.958;-7.470;2024-02-26T01:28:09;2.75;;;1.30;;
64252;SDS011;50592;52.958;-7.470;2024-02-26T01:30:35;1.88;;;1.00;;
64252;SDS011;50592;52.958;-7.470;2024-02-26T01:36:11;4.63;;;1.70;;
64252;SDS011;50592;52.958;-7.470;2024-02-26T01:38:37;1.85;;;1.25;;
64252;SDS011;50592;52.958;-7.470;2024-02-26T01:41:09;1.85;;;1.00;;
64252;SDS011;50592;52.958;-7.470;2024-02-26T01:43:44;1.33;;;1.13;;
64252;SDS011;50592;52.958;-7.470;2024-02-26T01:46:11;2.90;;;1.00;;
64252;SDS011;50592;52.958;-7.470;2024-02-26T01:48:57;2.83;;;1.40;;
64252;SDS011;50592;52.958;-7.470;2024-02-26T01:52:15;2.17;;;1.60;;
64252;SDS011;50592;52.958;-7.470;2024-02-26T01:55:02;3.10;;;1.15;;
64252;SDS011;50592;52.958;-7.470;2024-02-26T01:57:57;2.40;;;0.90;;
64252;SDS011;50592;52.958;-7.470;2024-02-26T02:00:27;1.67;;;1.15;;
64252;SDS011;50592;52.958;-7.470;2024-02-26T02:08:29;6.13;;;1.10;;
64252;SDS011;50592;52.958;-7.470;2024-02-26T02:11:07;3.60;;;0.52;;
64252;SDS011;50592;52.958;-7.470;2024-02-26T02:13:47;9.23;;;1.15;;
64252;SDS011;50592;52.958;-7.470;2024-02-26T02:16:17;3.47;;;1.23;;
64252;SDS011;50592;52.958;-7.470;2024-02-26T02:18:42;3.55;;;1.08;;
64252;SDS011;50592;52.958;-7.470;2024-02-26T02:21:23;3.33;;;0.93;;
64252;SDS011;50592;52.958;-7.470;2024-02-26T02:23:55;7.63;;;0.98;;
64252;SDS011;50592;52.958;-7.470;2024-02-26T02:26:23;4.95;;;0.95;;
64252;SDS011;50592;52.958;-7.470;2024-02-26T02:29:00;2.28;;;0.52;;
64252;SDS011;50592;52.958;-7.470;2024-02-26T02:31:51;3.35;;;0.65;;
64252;SDS011;50592;52.958;-7.470;2024-02-26T02:34:26;1.83;;;0.80;;
64252;SDS011;50592;52.958;-7.470;2024-02-26T02:36:58;2.78;;;0.88;;
64252;SDS011;50592;52.958;-7.470;2024-02-26T02:39:32;1.33;;;0.52;;
64252;SDS011;50592;52.958;-7.470;2024-02-26T02:42:04;1.48;;;0.60;;
64252;SDS011;50592;52.958;-7.470;2024-02-26T02:44:30;0.93;;;0.50;;
64252;SDS011;50592;52.958;-7.470;2024-02-26T02:46:56;2.47;;;0.60;;
64252;SDS011;50592;52.958;-7.470;2024-02-26T02:49:22;3.42;;;0.55;;
64252;SDS011;50592;52.958;-7.470;2024-02-26T02:51:49;2.55;;;0.90;;
64252;SDS011;50592;52.958;-7.470;2024-02-26T02:54:14;3.38;;;1.35;;
64252;SDS011;50592;52.958;-7.470;2024-02-26T02:56:40;1.35;;;0.30;;
64252;SDS011;50592;52.958;-7.470;2024-02-26T02:59:06;1.55;;;0.80;;
64252;SDS011;50592;52.958;-7.470;2024-02-26T03:01:32;0.60;;;0.50;;
64252;SDS011;50592;52.958;-7.470;2024-02-26T03:03:58;1.50;;;0.55;;
64252;SDS011;50592;52.958;-7.470;2024-02-26T03:06:24;0.77;;;0.52;;
64252;SDS011;50592;52.958;-7.470;2024-02-26T03:08:51;3.13;;;0.98;;
64252;SDS011;50592;52.958;-7.470;2024-02-26T03:11:17;2.65;;;0.65;;
64252;SDS011;50592;52.958;-7.470;2024-02-26T03:13:44;2.78;;;0.75;;
64252;SDS011;50592;52.958;-7.470;2024-02-26T03:16:11;1.92;;;0.60;;
64252;SDS011;50592;52.958;-7.470;2024-02-26T03:18:40;6.30;;;0.65;;
64252;SDS011;50592;52.958;-7.470;2024-02-26T03:21:06;3.42;;;0.60;;
64252;SDS011;50592;52.958;-7.470;2024-02-26T03:23:32;2.08;;;0.40;;
64252;SDS011;50592;52.958;-7.470;2024-02-26T03:26:08;3.50;;;0.80;;
64252;SDS011;50592;52.958;-7.470;2024-02-26T03:28:39;2.22;;;0.65;;
64252;SDS011;50592;52.958;-7.470;2024-02-26T03:31:10;2.55;;;0.60;;
64252;SDS011;50592;52.958;-7.470;2024-02-26T03:33:36;2.72;;;0.57;;
64252;SDS011;50592;52.958;-7.470;2024-02-26T03:36:02;3.22;;;0.80;;
64252;SDS011;50592;52.958;-7.470;2024-02-26T03:38:31;3.88;;;0.60;;
64252;SDS011;50592;52.958;-7.470;2024-02-26T03:40:56;4.05;;;0.68;;
64252;SDS011;50592;52.958;-7.470;2024-02-26T03:43:30;4.82;;;0.47;;
64252;SDS011;50592;52.958;-7.470;2024-02-26T03:46:03;1.42;;;0.65;;
64252;SDS011;50592;52.958;-7.470;2024-02-26T03:48:29;4.90;;;0.80;;
64252;SDS011;50592;52.958;-7.470;2024-02-26T03:50:55;3.08;;;0.90;;
64252;SDS011;50592;52.958;-7.470;2024-02-26T03:53:21;1.58;;;0.60;;
64252;SDS011;50592;52.958;-7.470;2024-02-26T03:55:46;6.28;;;1.10;;
64252;SDS011;50592;52.958;-7.470;2024-02-26T03:58:12;2.25;;;0.32;;
64252;SDS011;50592;52.958;-7.470;2024-02-26T04:00:38;3.33;;;0.57;;
64252;SDS011;50592;52.958;-7.470;2024-02-26T04:03:06;1.20;;;0.50;;
64252;SDS011;50592;52.958;-7.470;2024-02-26T04:05:35;3.47;;;0.85;;
64252;SDS011;50592;52.958;-7.470;2024-02-26T04:08:06;0.40;;;0.28;;
64252;SDS011;50592;52.958;-7.470;2024-02-26T04:10:33;1.00;;;0.50;;
64252;SDS011;50592;52.958;-7.470;2024-02-26T04:13:01;1.58;;;0.95;;
64252;SDS011;50592;52.958;-7.470;2024-02-26T04:15:27;2.95;;;0.70;;
64252;SDS011;50592;52.958;-7.470;2024-02-26T04:18:11;3.95;;;0.70;;
64252;SDS011;50592;52.958;-7.470;2024-02-26T04:21:09;0.45;;;0.30;;
64252;SDS011;50592;52.958;-7.470;2024-02-26T04:23:41;3.25;;;0.50;;
64252;SDS011;50592;52.958;-7.470;2024-02-26T04:26:07;0.52;;;0.30;;
64252;SDS011;50592;52.958;-7.470;2024-02-26T04:28:33;0.90;;;0.60;;
64252;SDS011;50592;52.958;-7.470;2024-02-26T04:30:59;3.95;;;0.80;;
64252;SDS011;50592;52.958;-7.470;2024-02-26T04:33:24;1.90;;;0.65;;
64252;SDS011;50592;52.958;-7.470;2024-02-26T04:35:50;4.25;;;0.40;;
64252;SDS011;50592;52.958;-7.470;2024-02-26T04:38:20;2.70;;;0.68;;
64252;SDS011;50592;52.958;-7.470;2024-02-26T04:40:54;1.05;;;0.50;;
64252;SDS011;50592;52.958;-7.470;2024-02-26T04:43:20;2.58;;;0.40;;
64252;SDS011;50592;52.958;-7.470;2024-02-26T04:45:46;2.25;;;0.85;;
64252;SDS011;50592;52.958;-7.470;2024-02-26T04:48:12;3.28;;;0.52;;
64252;SDS011;50592;52.958;-7.470;2024-02-26T04:50:38;1.58;;;0.40;;
64252;SDS011;50592;52.958;-7.470;2024-02-26T04:53:10;1.83;;;0.50;;
64252;SDS011;50592;52.958;-7.470;2024-02-26T04:55:39;1.23;;;0.50;;
64252;SDS011;50592;52.958;-7.470;2024-02-26T04:58:05;2.33;;;0.65;;
64252;SDS011;50592;52.958;-7.470;2024-02-26T05:00:30;1.85;;;0.60;;
64252;SDS011;50592;52.958;-7.470;2024-02-26T05:03:01;5.28;;;0.90;;
64252;SDS011;50592;52.958;-7.470;2024-02-26T05:05:33;3.42;;;1.33;;
64252;SDS011;50592;52.958;-7.470;2024-02-26T05:08:02;5.93;;;1.30;;
64252;SDS011;50592;52.958;-7.470;2024-02-26T05:10:28;1.27;;;0.75;;
64252;SDS011;50592;52.958;-7.470;2024-02-26T05:12:54;1.63;;;1.10;;
64252;SDS011;50592;52.958;-7.470;2024-02-26T05:15:36;5.10;;;1.25;;
64252;SDS011;50592;52.958;-7.470;2024-02-26T05:18:27;4.00;;;1.20;;
64252;SDS011;50592;52.958;-7.470;2024-02-26T05:20:58;5.53;;;1.48;;
64252;SDS011;50592;52.958;-7.470;2024-02-26T05:23:24;2.50;;;0.80;;
64252;SDS011;50592;52.958;-7.470;2024-02-26T05:25:50;3.42;;;1.20;;
64252;SDS011;50592;52.958;-7.470;2024-02-26T05:28:16;1.42;;;0.80;;
64252;SDS011;50592;52.958;-7.470;2024-02-26T05:30:45;4.10;;;1.02;;
64252;SDS011;50592;52.958;-7.470;2024-02-26T05:33:11;1.83;;;0.50;;
64252;SDS011;50592;52.958;-7.470;2024-02-26T05:35:40;3.22;;;0.63;;
64252;SDS011;50592;52.958;-7.470;2024-02-26T05:38:06;12.15;;;1.00;;
64252;SDS011;50592;52.958;-7.470;2024-02-26T05:40:43;7.63;;;0.82;;
64252;SDS011;50592;52.958;-7.470;2024-02-26T05:43:15;2.90;;;0.88;;
64252;SDS011;50592;52.958;-7.470;2024-02-26T05:45:53;4.10;;;0.75;;
64252;SDS011;50592;52.958;-7.470;2024-02-26T05:48:30;5.88;;;1.00;;
64252;SDS011;50592;52.958;-7.470;2024-02-26T05:50:59;0.73;;;0.45;;
64252;SDS011;50592;52.958;-7.470;2024-02-26T05:53:24;9.85;;;1.00;;
64252;SDS011;50592;52.958;-7.470;2024-02-26T05:55:57;6.50;;;1.33;;
64252;SDS011;50592;52.958;-7.470;2024-02-26T05:58:26;3.05;;;1.55;;
64252;SDS011;50592;52.958;-7.470;2024-02-26T06:00:52;3.65;;;0.93;;
64252;SDS011;50592;52.958;-7.470;2024-02-26T06:03:18;4.70;;;1.00;;
64252;SDS011;50592;52.958;-7.470;2024-02-26T06:05:43;5.82;;;1.00;;
64252;SDS011;50592;52.958;-7.470;2024-02-26T06:08:09;2.08;;;0.65;;
64252;SDS011;50592;52.958;-7.470;2024-02-26T06:10:39;6.30;;;1.25;;
64252;SDS011;50592;52.958;-7.470;2024-02-26T06:13:05;6.15;;;1.58;;
64252;SDS011;50592;52.958;-7.470;2024-02-26T06:15:50;2.75;;;0.85;;
64252;SDS011;50592;52.958;-7.470;2024-02-26T06:18:32;9.27;;;1.13;;
64252;SDS011;50592;52.958;-7.470;2024-02-26T06:20:59;4.73;;;1.13;;
64252;SDS011;50592;52.958;-7.470;2024-02-26T06:23:59;2.60;;;0.98;;
64252;SDS011;50592;52.958;-7.470;2024-02-26T06:26:26;7.22;;;1.30;;
64252;SDS011;50592;52.958;-7.470;2024-02-26T06:28:54;3.58;;;0.98;;
64252;SDS011;50592;52.958;-7.470;2024-02-26T06:31:23;5.43;;;1.10;;
64252;SDS011;50592;52.958;-7.470;2024-02-26T06:33:49;2.70;;;0.70;;
64252;SDS011;50592;52.958;-7.470;2024-02-26T06:36:16;4.15;;;1.10;;
64252;SDS011;50592;52.958;-7.470;2024-02-26T06:38:47;6.15;;;0.75;;
64252;SDS011;50592;52.958;-7.470;2024-02-26T06:41:22;6.32;;;0.32;;
64252;SDS011;50592;52.958;-7.470;2024-02-26T06:43:53;1.52;;;0.60;;
64252;SDS011;50592;52.958;-7.470;2024-02-26T06:46:22;4.65;;;0.82;;
64252;SDS011;50592;52.958;-7.470;2024-02-26T06:48:52;9.15;;;1.10;;
64252;SDS011;50592;52.958;-7.470;2024-02-26T06:51:19;6.28;;;1.17;;
64252;SDS011;50592;52.958;-7.470;2024-02-26T06:53:44;4.57;;;1.00;;
64252;SDS011;50592;52.958;-7.470;2024-02-26T06:56:12;10.20;;;1.05;;
64252;SDS011;50592;52.958;-7.470;2024-02-26T06:58:38;4.03;;;0.65;;
64252;SDS011;50592;52.958;-7.470;2024-02-26T07:01:04;6.05;;;1.40;;
64252;SDS011;50592;52.958;-7.470;2024-02-26T07:03:30;4.45;;;0.90;;
64252;SDS011;50592;52.958;-7.470;2024-02-26T07:06:00;2.92;;;0.90;;
64252;SDS011;50592;52.958;-7.470;2024-02-26T07:08:35;5.43;;;1.42;;
64252;SDS011;50592;52.958;-7.470;2024-02-26T07:11:00;3.65;;;0.80;;
64252;SDS011;50592;52.958;-7.470;2024-02-26T07:13:26;1.45;;;0.70;;
64252;SDS011;50592;52.958;-7.470;2024-02-26T07:15:55;8.30;;;2.17;;
64252;SDS011;50592;52.958;-7.470;2024-02-26T07:18:29;7.53;;;1.35;;
64252;SDS011;50592;52.958;-7.470;2024-02-26T07:20:55;4.03;;;1.02;;
64252;SDS011;50592;52.958;-7.470;2024-02-26T07:23:21;5.82;;;1.15;;
64252;SDS011;50592;52.958;-7.470;2024-02-26T07:25:51;3.03;;;0.65;;
64252;SDS011;50592;52.958;-7.470;2024-02-26T07:28:20;4.13;;;0.88;;
64252;SDS011;50592;52.958;-7.470;2024-02-26T07:30:49;4.80;;;0.70;;
64252;SDS011;50592;52.958;-7.470;2024-02-26T07:33:18;4.55;;;1.30;;
64252;SDS011;50592;52.958;-7.470;2024-02-26T07:35:44;3.58;;;0.65;;
64252;SDS011;50592;52.958;-7.470;2024-02-26T07:38:13;4.63;;;1.20;;
64252;SDS011;50592;52.958;-7.470;2024-02-26T07:40:51;2.50;;;0.88;;
64252;SDS011;50592;52.958;-7.470;2024-02-26T07:43:22;4.22;;;1.13;;
64252;SDS011;50592;52.958;-7.470;2024-02-26T07:45:51;7.15;;;1.35;;
64252;SDS011;50592;52.958;-7.470;2024-02-26T07:48:17;4.03;;;1.00;;
64252;SDS011;50592;52.958;-7.470;2024-02-26T07:50:45;4.13;;;1.08;;
64252;SDS011;50592;52.958;-7.470;2024-02-26T07:53:11;3.55;;;1.30;;
64252;SDS011;50592;52.958;-7.470;2024-02-26T07:55:37;3.40;;;1.05;;
64252;SDS011;50592;52.958;-7.470;2024-02-26T07:58:06;1.38;;;1.10;;
64252;SDS011;50592;52.958;-7.470;2024-02-26T08:00:35;5.13;;;1.42;;
64252;SDS011;50592;52.958;-7.470;2024-02-26T08:03:01;8.27;;;1.40;;
64252;SDS011;50592;52.958;-7.470;2024-02-26T08:05:28;6.10;;;1.10;;
64252;SDS011;50592;52.958;-7.470;2024-02-26T08:07:56;5.82;;;1.30;;
64252;SDS011;50592;52.958;-7.470;2024-02-26T08:10:26;5.57;;;1.02;;
64252;SDS011;50592;52.958;-7.470;2024-02-26T08:12:51;6.18;;;1.70;;
64252;SDS011;50592;52.958;-7.470;2024-02-26T08:15:18;3.45;;;1.88;;
64252;SDS011;50592;52.958;-7.470;2024-02-26T08:17:44;8.63;;;1.48;;
64252;SDS011;50592;52.958;-7.470;2024-02-26T08:20:10;3.92;;;2.10;;
64252;SDS011;50592;52.958;-7.470;2024-02-26T08:22:36;3.72;;;1.42;;
64252;SDS011;50592;52.958;-7.470;2024-02-26T08:25:02;5.22;;;0.95;;
64252;SDS011;50592;52.958;-7.470;2024-02-26T08:27:32;7.47;;;1.08;;
64252;SDS011;50592;52.958;-7.470;2024-02-26T08:29:57;6.13;;;0.70;;
64252;SDS011;50592;52.958;-7.470;2024-02-26T08:32:23;1.63;;;0.40;;
64252;SDS011;50592;52.958;-7.470;2024-02-26T08:34:49;4.60;;;0.80;;
64252;SDS011;50592;52.958;-7.470;2024-02-26T08:37:15;4.68;;;1.13;;
64252;SDS011;50592;52.958;-7.470;2024-02-26T08:39:41;5.05;;;0.70;;
64252;SDS011;50592;52.958;-7.470;2024-02-26T08:42:07;1.85;;;0.55;;
64252;SDS011;50592;52.958;-7.470;2024-02-26T08:44:32;1.75;;;0.77;;
64252;SDS011;50592;52.958;-7.470;2024-02-26T08:46:58;5.28;;;0.80;;
64252;SDS011;50592;52.958;-7.470;2024-02-26T08:49:24;5.20;;;0.70;;
64252;SDS011;50592;52.958;-7.470;2024-02-26T08:51:50;2.80;;;0.82;;
64252;SDS011;50592;52.958;-7.470;2024-02-26T08:54:16;0.88;;;0.50;;
64252;SDS011;50592;52.958;-7.470;2024-02-26T08:56:41;3.63;;;0.35;;
64252;SDS011;50592;52.958;-7.470;2024-02-26T08:59:07;1.75;;;0.63;;
64252;SDS011;50592;52.958;-7.470;2024-02-26T09:01:33;4.47;;;0.70;;
64252;SDS011;50592;52.958;-7.470;2024-02-26T09:03:59;3.83;;;0.80;;
64252;SDS011;50592;52.958;-7.470;2024-02-26T09:06:25;3.53;;;0.45;;
64252;SDS011;50592;52.958;-7.470;2024-02-26T09:08:51;3.67;;;0.60;;
64252;SDS011;50592;52.958;-7.470;2024-02-26T09:11:17;2.85;;;0.50;;
64252;SDS011;50592;52.958;-7.470;2024-02-26T09:13:43;5.68;;;0.70;;
64252;SDS011;50592;52.958;-7.470;2024-02-26T09:16:09;3.42;;;0.70;;
64252;SDS011;50592;52.958;-7.470;2024-02-26T09:18:34;2.35;;;0.55;;
64252;SDS011;50592;52.958;-7.470;2024-02-26T09:21:04;3.38;;;0.50;;
64252;SDS011;50592;52.958;-7.470;2024-02-26T09:23:31;6.25;;;0.80;;
64252;SDS011;50592;52.958;-7.470;2024-02-26T09:25:57;2.00;;;0.40;;
64252;SDS011;50592;52.958;-7.470;2024-02-26T09:28:22;3.28;;;0.40;;
64252;SDS011;50592;52.958;-7.470;2024-02-26T09:30:48;1.50;;;0.35;;
64252;SDS011;50592;52.958;-7.470;2024-02-26T09:33:26;3.72;;;0.38;;
64252;SDS011;50592;52.958;-7.470;2024-02-26T09:35:55;3.28;;;0.60;;
64252;SDS011;50592;52.958;-7.470;2024-02-26T09:38:26;1.42;;;0.30;;
64252;SDS011;50592;52.958;-7.470;2024-02-26T09:40:52;1.98;;;0.32;;
64252;SDS011;50592;52.958;-7.470;2024-02-26T09:43:21;9.23;;;0.50;;
64252;SDS011;50592;52.958;-7.470;2024-02-26T09:45:54;3.08;;;1.00;;
64252;SDS011;50592;52.958;-7.470;2024-02-26T09:48:20;1.10;;;0.50;;
64252;SDS011;50592;52.958;-7.470;2024-02-26T09:50:54;2.42;;;0.57;;
64252;SDS011;50592;52.958;-7.470;2024-02-26T09:53:21;3.60;;;0.73;;
64252;SDS011;50592;52.958;-7.470;2024-02-26T09:55:47;2.00;;;0.68;;
64252;SDS011;50592;52.958;-7.470;2024-02-26T09:58:15;1.95;;;0.43;;
64252;SDS011;50592;52.958;-7.470;2024-02-26T10:01:02;1.70;;;0.50;;
64252;SDS011;50592;52.958;-7.470;2024-02-26T10:03:39;3.03;;;0.40;;
64252;SDS011;50592;52.958;-7.470;2024-02-26T10:06:08;6.13;;;1.02;;
64252;SDS011;50592;52.958;-7.470;2024-02-26T10:08:34;1.63;;;0.40;;
64252;SDS011;50592;52.958;-7.470;2024-02-26T10:11:02;5.80;;;0.73;;
64252;SDS011;50592;52.958;-7.470;2024-02-26T10:13:36;1.90;;;0.50;;
64252;SDS011;50592;52.958;-7.470;2024-02-26T10:16:05;5.63;;;0.80;;
64252;SDS011;50592;52.958;-7.470;2024-02-26T10:21:16;5.90;;;0.82;;
64252;SDS011;50592;52.958;-7.470;2024-02-26T10:26:45;2.70;;;0.60;;
64252;SDS011;50592;52.958;-7.470;2024-02-26T10:29:17;3.85;;;0.57;;
64252;SDS011;50592;52.958;-7.470;2024-02-26T10:31:44;5.50;;;0.70;;
64252;SDS011;50592;52.958;-7.470;2024-02-26T10:34:44;5.88;;;0.80;;
64252;SDS011;50592;52.958;-7.470;2024-02-26T10:37:22;4.03;;;0.65;;
64252;SDS011;50592;52.958;-7.470;2024-02-26T10:42:25;6.13;;;0.60;;
64252;SDS011;50592;52.958;-7.470;2024-02-26T10:44:51;2.45;;;0.60;;
64252;SDS011;50592;52.958;-7.470;2024-02-26T10:47:17;5.32;;;0.60;;
64252;SDS011;50592;52.958;-7.470;2024-02-26T10:49:46;8.88;;;1.45;;
64252;SDS011;50592;52.958;-7.470;2024-02-26T10:52:13;6.43;;;1.45;;
64252;SDS011;50592;52.958;-7.470;2024-02-26T10:54:41;3.58;;;0.88;;
64252;SDS011;50592;52.958;-7.470;2024-02-26T10:57:10;2.40;;;0.65;;
64252;SDS011;50592;52.958;-7.470;2024-02-26T10:59:41;1.33;;;0.70;;
64252;SDS011;50592;52.958;-7.470;2024-02-26T11:02:09;3.92;;;0.93;;
64252;SDS011;50592;52.958;-7.470;2024-02-26T11:04:36;12.55;;;1.00;;
64252;SDS011;50592;52.958;-7.470;2024-02-26T11:07:03;2.33;;;0.57;;
64252;SDS011;50592;52.958;-7.470;2024-02-26T11:09:30;4.18;;;0.63;;
64252;SDS011;50592;52.958;-7.470;2024-02-26T11:12:00;0.95;;;0.65;;
64252;SDS011;50592;52.958;-7.470;2024-02-26T11:14:28;4.03;;;0.70;;
64252;SDS011;50592;52.958;-7.470;2024-02-26T11:16:58;5.40;;;0.70;;
64252;SDS011;50592;52.958;-7.470;2024-02-26T11:19:26;4.03;;;0.70;;
64252;SDS011;50592;52.958;-7.470;2024-02-26T11:21:53;3.38;;;0.70;;
64252;SDS011;50592;52.958;-7.470;2024-02-26T11:24:19;3.35;;;0.80;;
64252;SDS011;50592;52.958;-7.470;2024-02-26T11:26:46;3.00;;;0.52;;
64252;SDS011;50592;52.958;-7.470;2024-02-26T11:29:17;4.93;;;0.40;;
64252;SDS011;50592;52.958;-7.470;2024-02-26T11:31:47;4.28;;;0.68;;
64252;SDS011;50592;52.958;-7.470;2024-02-26T11:34:13;6.00;;;0.68;;
64252;SDS011;50592;52.958;-7.470;2024-02-26T11:36:39;2.67;;;0.30;;
64252;SDS011;50592;52.958;-7.470;2024-02-26T11:39:07;5.05;;;0.73;;
64252;SDS011;50592;52.958;-7.470;2024-02-26T11:41:33;7.10;;;1.00;;
64252;SDS011;50592;52.958;-7.470;2024-02-26T11:44:00;6.97;;;0.60;;
64252;SDS011;50592;52.958;-7.470;2024-02-26T11:46:31;3.72;;;0.60;;
64252;SDS011;50592;52.958;-7.470;2024-02-26T11:48:59;5.22;;;0.43;;
64252;SDS011;50592;52.958;-7.470;2024-02-26T11:51:27;2.80;;;0.50;;
64252;SDS011;50592;52.958;-7.470;2024-02-26T11:53:57;4.22;;;0.57;;
64252;SDS011;50592;52.958;-7.470;2024-02-26T11:59:38;9.10;;;1.17;;
64252;SDS011;50592;52.958;-7.470;2024-02-26T12:05:07;3.75;;;0.70;;
64252;SDS011;50592;52.958;-7.470;2024-02-26T12:07:43;1.05;;;0.30;;
64252;SDS011;50592;52.958;-7.470;2024-02-26T12:10:24;1.90;;;0.45;;
64252;SDS011;50592;52.958;-7.470;2024-02-26T12:15:23;2.38;;;0.50;;
64252;SDS011;50592;52.958;-7.470;2024-02-26T12:17:52;6.22;;;0.77;;
64252;SDS011;50592;52.958;-7.470;2024-02-26T12:20:21;2.75;;;0.43;;
64252;SDS011;50592;52.958;-7.470;2024-02-26T12:22:55;2.38;;;0.52;;
64252;SDS011;50592;52.958;-7.470;2024-02-26T12:25:40;6.82;;;1.08;;
64252;SDS011;50592;52.958;-7.470;2024-02-26T12:28:22;6.35;;;1.40;;
64252;SDS011;50592;52.958;-7.470;2024-02-26T12:30:48;3.70;;;0.40;;
64252;SDS011;50592;52.958;-7.470;2024-02-26T12:33:14;6.50;;;0.80;;
64252;SDS011;50592;52.958;-7.470;2024-02-26T12:36:07;1.38;;;0.32;;
64252;SDS011;50592;52.958;-7.470;2024-02-26T12:38:33;2.47;;;0.47;;
64252;SDS011;50592;52.958;-7.470;2024-02-26T12:41:01;4.15;;;0.70;;
64252;SDS011;50592;52.958;-7.470;2024-02-26T12:43:28;4.47;;;0.50;;
64252;SDS011;50592;52.958;-7.470;2024-02-26T12:45:56;3.63;;;0.43;;
64252;SDS011;50592;52.958;-7.470;2024-02-26T12:48:29;2.10;;;0.52;;
64252;SDS011;50592;52.958;-7.470;2024-02-26T12:50:55;1.45;;;0.38;;
64252;SDS011;50592;52.958;-7.470;2024-02-26T12:53:21;3.72;;;0.60;;
64252;SDS011;50592;52.958;-7.470;2024-02-26T12:55:52;2.08;;;0.75;;
64252;SDS011;50592;52.958;-7.470;2024-02-26T12:58:41;2.50;;;0.75;;
64252;SDS011;50592;52.958;-7.470;2024-02-26T13:01:39;2.53;;;0.60;;
64252;SDS011;50592;52.958;-7.470;2024-02-26T13:04:05;3.00;;;0.75;;
64252;SDS011;50592;52.958;-7.470;2024-02-26T13:06:34;5.30;;;0.20;;
64252;SDS011;50592;52.958;-7.470;2024-02-26T13:09:00;1.48;;;0.30;;
64252;SDS011;50592;52.958;-7.470;2024-02-26T13:11:27;3.80;;;0.43;;
64252;SDS011;50592;52.958;-7.470;2024-02-26T13:13:54;2.00;;;0.30;;
64252;SDS011;50592;52.958;-7.470;2024-02-26T13:16:23;7.63;;;0.77;;
64252;SDS011;50592;52.958;-7.470;2024-02-26T13:18:50;2.50;;;0.50;;
64252;SDS011;50592;52.958;-7.470;2024-02-26T13:21:18;1.48;;;0.40;;
64252;SDS011;50592;52.958;-7.470;2024-02-26T13:23:48;3.13;;;0.40;;
64252;SDS011;50592;52.958;-7.470;2024-02-26T13:32:17;2.05;;;0.20;;
64252;SDS011;50592;52.958;-7.470;2024-02-26T13:34:42;3.15;;;0.40;;
64252;SDS011;50592;52.958;-7.470;2024-02-26T13:37:08;0.43;;;0.30;;
64252;SDS011;50592;52.958;-7.470;2024-02-26T13:39:34;2.35;;;0.50;;
64252;SDS011;50592;52.958;-7.470;2024-02-26T13:42:02;0.90;;;0.30;;
64252;SDS011;50592;52.958;-7.470;2024-02-26T13:44:29;2.47;;;0.25;;
64252;SDS011;50592;52.958;-7.470;2024-02-26T13:46:55;0.28;;;0.10;;
64252;SDS011;50592;52.958;-7.470;2024-02-26T13:49:21;0.55;;;0.10;;
64252;SDS011;50592;52.958;-7.470;2024-02-26T13:51:47;1.38;;;0.30;;
64252;SDS011;50592;52.958;-7.470;2024-02-26T13:54:13;0.65;;;0.20;;
64252;SDS011;50592;52.958;-7.470;2024-02-26T13:56:40;1.40;;;0.30;;
64252;SDS011;50592;52.958;-7.470;2024-02-26T13:59:06;2.40;;;0.30;;
64252;SDS011;50592;52.958;-7.470;2024-02-26T14:01:31;2.45;;;0.47;;
64252;SDS011;50592;52.958;-7.470;2024-02-26T14:03:59;1.70;;;0.50;;
64252;SDS011;50592;52.958;-7.470;2024-02-26T14:06:29;3.83;;;0.82;;
64252;SDS011;50592;52.958;-7.470;2024-02-26T14:08:55;2.85;;;0.52;;
64252;SDS011;50592;52.958;-7.470;2024-02-26T14:11:21;4.50;;;0.80;;
64252;SDS011;50592;52.958;-7.470;2024-02-26T14:13:47;4.88;;;0.75;;
64252;SDS011;50592;52.958;-7.470;2024-02-26T14:16:13;3.65;;;0.50;;
64252;SDS011;50592;52.958;-7.470;2024-02-26T14:18:39;2.15;;;0.47;;
64252;SDS011;50592;52.958;-7.470;2024-02-26T14:21:06;10.10;;;1.10;;
64252;SDS011;50592;52.958;-7.470;2024-02-26T14:23:32;5.07;;;2.15;;
64252;SDS011;50592;52.958;-7.470;2024-02-26T14:25:58;2.15;;;0.60;;
64252;SDS011;50592;52.958;-7.470;2024-02-26T14:28:25;2.47;;;0.68;;
64252;SDS011;50592;52.958;-7.470;2024-02-26T14:30:53;3.95;;;0.60;;
64252;SDS011;50592;52.958;-7.470;2024-02-26T14:33:19;2.13;;;0.43;;
64252;SDS011;50592;52.958;-7.470;2024-02-26T14:35:45;1.65;;;0.55;;
64252;SDS011;50592;52.958;-7.470;2024-02-26T14:38:11;1.02;;;0.40;;
64252;SDS011;50592;52.958;-7.470;2024-02-26T14:40:37;4.20;;;0.70;;
64252;SDS011;50592;52.958;-7.470;2024-02-26T14:43:02;3.10;;;0.77;;
64252;SDS011;50592;52.958;-7.470;2024-02-26T14:45:30;3.67;;;0.57;;
64252;SDS011;50592;52.958;-7.470;2024-02-26T14:47:56;3.05;;;0.38;;
64252;SDS011;50592;52.958;-7.470;2024-02-26T14:50:22;8.65;;;0.50;;
64252;SDS011;50592;52.958;-7.470;2024-02-26T14:52:48;3.95;;;0.43;;
64252;SDS011;50592;52.958;-7.470;2024-02-26T14:55:13;5.47;;;0.63;;
64252;SDS011;50592;52.958;-7.470;2024-02-26T14:57:40;4.10;;;0.50;;
64252;SDS011;50592;52.958;-7.470;2024-02-26T15:00:06;3.90;;;0.43;;
64252;SDS011;50592;52.958;-7.470;2024-02-26T15:02:33;2.05;;;0.43;;
64252;SDS011;50592;52.958;-7.470;2024-02-26T15:04:59;1.63;;;0.80;;
64252;SDS011;50592;52.958;-7.470;2024-02-26T15:07:24;2.40;;;0.22;;
64252;SDS011;50592;52.958;-7.470;2024-02-26T15:09:50;2.83;;;0.47;;
64252;SDS011;50592;52.958;-7.470;2024-02-26T15:12:16;0.80;;;0.20;;
64252;SDS011;50592;52.958;-7.470;2024-02-26T15:14:43;3.67;;;0.70;;
64252;SDS011;50592;52.958;-7.470;2024-02-26T15:17:10;1.20;;;0.30;;
64252;SDS011;50592;52.958;-7.470;2024-02-26T15:19:38;5.05;;;0.50;;
64252;SDS011;50592;52.958;-7.470;2024-02-26T15:22:05;1.92;;;0.85;;
64252;SDS011;50592;52.958;-7.470;2024-02-26T15:25:31;1.50;;;0.70;;